Time;durP1;ratioP1;P1;durP2;ratioP2;P2;SDS_P1;SDS_P2;PMS_P1;PMS_P2;Temp;Humidity;BMP_temperature;BMP_pressure;BME280_temperature;BME280_humidity;BME280_pressure;Samples;Min_cycle;Max_cycle;Signal;HPM_P1;HPM_P2
2023/06/05 00:01:00;;;;;;;4.10;1.70;;;;;;;15.19;36.50;100742.16;102994;1260;137750;-66
2023/06/05 00:03:47;;;;;;;3.20;2.00;;;;;;;15.16;36.53;100741.74;103074;1256;109034;-67
2023/06/05 00:06:15;;;;;;;4.80;1.70;;;;;;;15.13;36.62;100743.97;103190;1256;98495;-66
2023/06/05 00:08:42;;;;;;;5.80;2.10;;;;;;;15.14;36.66;100746.41;103883;1255;137644;-66
2023/06/05 00:11:10;;;;;;;3.70;2.00;;;;;;;15.12;36.69;100742.98;103120;1256;97829;-66
2023/06/05 00:13:38;;;;;;;6.90;1.90;;;;;;;15.09;36.84;100743.08;103786;1256;137696;-66
2023/06/05 00:16:06;;;;;;;4.70;2.10;;;;;;;15.07;36.73;100741.23;103236;1256;108157;-66
2023/06/05 00:18:33;;;;;;;7.50;2.20;;;;;;;15.05;36.89;100737.13;103239;1256;98001;-66
2023/06/05 00:21:03;;;;;;;8.60;2.10;;;;;;;15.03;36.97;100739.14;103067;1260;137479;-66
2023/06/05 00:23:30;;;;;;;3.20;1.80;;;;;;;15.00;37.07;100738.39;103385;1256;97775;-67
2023/06/05 00:25:58;;;;;;;3.40;1.70;;;;;;;14.98;37.06;100746.20;102991;1256;137647;-67
2023/06/05 00:28:25;;;;;;;5.20;2.00;;;;;;;14.95;37.13;100744.58;103147;1256;108368;-67
2023/06/05 00:30:53;;;;;;;4.30;1.90;;;;;;;14.93;37.25;100743.77;103146;1256;137960;-66
2023/06/05 00:33:20;;;;;;;7.40;2.10;;;;;;;14.91;37.30;100743.00;103158;1256;109067;-67
2023/06/05 00:35:48;;;;;;;4.80;2.00;;;;;;;14.88;37.42;100742.23;103063;1260;97794;-67
2023/06/05 00:38:16;;;;;;;4.40;1.90;;;;;;;14.86;37.55;100741.45;103044;1256;137696;-67
2023/06/05 00:40:43;;;;;;;5.60;1.90;;;;;;;14.83;37.56;100740.52;102987;1256;256325;-67
2023/06/05 00:43:10;;;;;;;4.80;1.90;;;;;;;14.81;37.57;100739.03;102861;1261;137990;-66
2023/06/05 00:45:37;;;;;;;7.20;1.80;;;;;;;14.78;37.77;100737.24;103207;1256;108504;-66
2023/06/05 00:48:06;;;;;;;2.90;1.70;;;;;;;14.76;37.81;100739.79;103084;1256;97837;-66
2023/06/05 00:50:36;;;;;;;6.60;2.00;;;;;;;14.74;37.89;100738.81;103115;1259;137676;-67
2023/06/05 00:53:07;;;;;;;7.80;2.00;;;;;;;14.72;37.97;100739.23;103119;1256;108594;-67
2023/06/05 00:55:34;;;;;;;3.20;1.70;;;;;;;14.69;37.94;100740.20;104342;1256;138437;-68
2023/06/05 00:58:03;;;;;;;5.00;1.90;;;;;;;14.68;37.99;100735.20;103175;1256;105998;-68
2023/06/05 01:00:32;;;;;;;3.30;2.20;;;;;;;14.67;38.02;100735.95;103973;1256;96667;-68
2023/06/05 01:02:59;;;;;;;7.10;2.10;;;;;;;14.65;38.18;100738.47;103911;1256;137657;-68
2023/06/05 01:05:28;;;;;;;5.10;2.10;;;;;;;14.62;38.22;100737.01;103373;1259;107924;-68
2023/06/05 01:07:57;;;;;;;2.50;1.60;;;;;;;14.61;38.34;100738.30;103372;1256;138491;-68
2023/06/05 01:10:25;;;;;;;4.20;1.60;;;;;;;14.58;38.42;100738.23;103478;1255;107721;-68
2023/06/05 01:13:00;;;;;;;6.20;2.10;;;;;;;14.56;38.51;100737.64;103085;1256;138088;-67
2023/06/05 01:15:30;;;;;;;2.40;1.80;;;;;;;14.53;38.56;100738.09;103193;1256;113864;-68
2023/06/05 01:17:58;;;;;;;3.80;1.70;;;;;;;14.48;38.63;100732.50;103395;1256;106271;-67
2023/06/05 01:20:34;;;;;;;6.30;2.10;;;;;;;14.45;38.81;100734.39;103050;1256;138309;-67
2023/06/05 01:23:03;;;;;;;2.60;1.50;;;;;;;14.41;38.79;100735.38;103353;1256;106735;-67
2023/06/05 01:25:30;;;;;;;3.70;2.10;;;;;;;14.38;38.80;100734.63;103021;1260;137876;-68
2023/06/05 01:28:09;;;;;;;5.40;2.00;;;;;;;14.37;38.94;100732.42;103516;1256;110742;-68
2023/06/05 01:30:44;;;;;;;4.40;2.00;;;;;;;14.35;38.99;100738.25;103149;1256;108764;-67
2023/06/05 01:33:17;;;;;;;3.60;1.90;;;;;;;14.32;39.06;100734.71;103318;1256;97833;-67
2023/06/05 01:35:51;;;;;;;3.90;2.50;;;;;;;14.28;39.22;100737.30;103817;1255;108228;-68
2023/06/05 01:38:20;;;;;;;4.80;2.10;;;;;;;14.26;39.18;100736.00;103280;1255;137856;-68
2023/06/05 01:40:51;;;;;;;4.30;1.80;;;;;;;14.24;39.30;100737.13;103130;1256;110877;-68
2023/06/05 01:43:19;;;;;;;5.60;2.40;;;;;;;14.22;39.25;100738.45;103483;1258;138533;-64
2023/06/05 01:45:50;;;;;;;2.70;2.10;;;;;;;14.20;39.40;100734.85;103107;1256;97868;-68
2023/06/05 01:48:18;;;;;;;4.10;2.00;;;;;;;14.18;39.47;100736.13;103070;1256;109826;-66
2023/06/05 01:50:45;;;;;;;4.60;1.90;;;;;;;14.17;39.65;100736.85;102950;1260;137788;-67
2023/06/05 01:53:13;;;;;;;3.10;1.80;;;;;;;14.15;39.57;100736.41;103138;1256;112096;-66
2023/06/05 01:55:41;;;;;;;2.90;1.80;;;;;;;14.14;39.66;100739.80;103128;1256;137898;-68
2023/06/05 01:58:17;;;;;;;;;;;;;;;14.11;39.74;100736.74;103263;1259;97872;-67
2023/06/05 02:00:46;;;;;;;3.30;2.00;;;;;;;14.09;39.86;100736.67;102980;1261;107707;-67
2023/06/05 02:03:15;;;;;;;5.20;1.90;;;;;;;14.06;39.83;100739.92;104299;1255;95700;-68
2023/06/05 02:05:46;;;;;;;5.90;2.10;;;;;;;14.05;39.91;100736.47;103210;1256;112139;-67
2023/06/05 02:08:17;;;;;;;4.70;2.10;;;;;;;14.03;40.04;100734.96;102862;1259;137812;-67
2023/06/05 02:10:44;;;;;;;5.70;2.20;;;;;;;14.02;40.02;100735.71;103243;1256;98304;-67
2023/06/05 02:13:12;;;;;;;6.00;1.80;;;;;;;14.02;40.05;100737.31;103437;1258;137937;-67
2023/06/05 02:15:41;;;;;;;7.80;2.30;;;;;;;14.01;40.13;100731.20;103167;1256;98380;-67
2023/06/05 02:18:08;;;;;;;3.50;2.00;;;;;;;14.00;40.09;100730.70;103237;1256;111585;-67
2023/06/05 02:20:37;;;;;;;3.70;2.10;;;;;;;14.00;40.24;100731.24;102926;1260;138715;-67
2023/06/05 02:23:05;;;;;;;3.90;1.80;;;;;;;13.99;40.20;100731.98;103709;1256;97878;-68
2023/06/05 02:25:32;;;;;;;6.50;1.60;;;;;;;13.98;40.38;100734.11;103061;1256;137859;-68
2023/06/05 02:28:00;;;;;;;2.90;1.80;;;;;;;13.97;40.27;100730.47;103044;1256;97880;-67
2023/06/05 02:30:27;;;;;;;4.00;1.70;;;;;;;13.97;40.37;100732.04;103235;1260;111485;-67
2023/06/05 02:33:00;;;;;;;4.90;1.90;;;;;;;13.96;40.35;100729.66;103060;1256;137869;-67
2023/06/05 02:35:29;;;;;;;3.10;1.90;;;;;;;13.95;40.40;100731.09;102997;1256;97799;-66
2023/06/05 02:37:57;;;;;;;3.50;2.00;;;;;;;13.95;40.27;100731.62;102917;1259;137609;-66
2023/06/05 02:40:25;;;;;;;6.30;1.90;;;;;;;13.94;40.49;100733.39;103192;1260;97837;-66
2023/06/05 02:42:52;;;;;;;3.00;1.80;;;;;;;13.93;40.50;100729.92;103080;1256;137866;-67
2023/06/05 02:45:20;;;;;;;4.90;2.00;;;;;;;13.91;40.63;100727.38;102994;1261;108259;-66
2023/06/05 02:47:49;;;;;;;3.80;1.80;;;;;;;13.90;40.66;100726.35;104394;1256;96824;-67
2023/06/05 02:50:16;;;;;;;8.30;2.10;;;;;;;13.89;40.66;100730.08;103028;1256;137672;-67
2023/06/05 02:52:47;;;;;;;6.40;2.00;;;;;;;13.88;40.70;100731.52;103418;1256;97814;-67
2023/06/05 02:55:19;;;;;;;4.40;1.80;;;;;;;13.87;40.86;100733.13;103055;1256;138172;-67
2023/06/05 02:57:48;;;;;;;5.70;2.10;;;;;;;13.86;40.90;100731.59;103570;1256;107049;-67
2023/06/05 03:00:20;;;;;;;4.20;2.00;;;;;;;13.85;40.89;100732.31;103281;1256;98236;-67
2023/06/05 03:02:51;;;;;;;4.30;2.20;;;;;;;13.86;40.87;100737.56;102937;1256;137711;-67
2023/06/05 03:05:24;;;;;;;4.80;2.00;;;;;;;13.85;40.89;100733.39;103540;1260;97870;-68
2023/06/05 03:07:54;;;;;;;3.10;2.00;;;;;;;13.86;40.98;100734.58;103065;1260;137840;-67
2023/06/05 03:10:22;;;;;;;4.80;1.90;;;;;;;13.85;41.00;100732.01;103254;1259;107164;-66
2023/06/05 03:12:50;;;;;;;4.40;2.20;;;;;;;13.84;41.09;100731.48;103715;1258;96864;-67
2023/06/05 03:15:18;;;;;;;7.60;2.20;;;;;;;13.85;41.13;100736.36;103161;1256;108384;-67
2023/06/05 03:17:47;;;;;;;4.80;2.10;;;;;;;13.86;41.22;100736.84;103195;1256;98226;-67
2023/06/05 03:20:17;;;;;;;4.90;2.40;;;;;;;13.87;41.27;100736.10;103006;1256;137713;-67
2023/06/05 03:22:48;;;;;;;4.90;2.10;;;;;;;13.89;41.38;100739.70;103337;1257;107371;-68
2023/06/05 03:25:18;;;;;;;7.90;2.50;;;;;;;13.90;41.37;100738.42;102994;1256;138608;-68
2023/06/05 03:27:47;;;;;;;6.40;2.30;;;;;;;13.92;41.41;100738.36;103083;1256;108301;-67
2023/06/05 03:30:16;;;;;;;5.00;2.30;;;;;;;13.93;41.49;100738.88;103135;1260;97887;-68
2023/06/05 03:32:56;;;;;;;5.00;2.40;;;;;;;13.94;41.58;100737.08;103257;1260;137586;-67
2023/06/05 03:35:28;;;;;;;7.30;2.10;;;;;;;13.94;41.60;100740.39;104438;1256;107662;-68
2023/06/05 03:37:58;;;;;;;5.60;2.20;;;;;;;13.95;41.53;100737.39;103451;1256;137818;-67
2023/06/05 03:40:25;;;;;;;4.80;2.40;;;;;;;13.95;41.69;100743.31;103153;1256;106710;-67
2023/06/05 03:42:54;;;;;;;6.50;2.40;;;;;;;13.98;41.74;100742.34;103076;1258;138495;-67
2023/06/05 03:45:22;;;;;;;3.70;2.40;;;;;;;14.00;41.73;100743.14;103515;1255;112639;-67
2023/06/05 03:47:49;;;;;;;4.50;2.30;;;;;;;14.02;41.84;100739.90;103221;1256;107940;-67
2023/06/05 03:50:17;;;;;;;4.90;2.00;;;;;;;14.05;41.67;100743.11;103205;1256;138866;-67
2023/06/05 03:52:45;;;;;;;8.80;2.60;;;;;;;14.08;41.80;100740.54;103732;1258;107735;-68
2023/06/05 03:55:22;;;;;;;3.30;1.90;;;;;;;14.11;41.74;100742.70;103149;1256;137963;-68
2023/06/05 03:57:50;;;;;;;6.40;2.30;;;;;;;14.14;41.90;100742.04;103174;1259;111915;-67
2023/06/05 04:00:19;;;;;;;3.90;2.10;;;;;;;14.18;41.81;100746.96;103110;1258;108677;-67
2023/06/05 04:02:53;;;;;;;4.60;2.40;;;;;;;14.20;41.86;100743.73;104041;1256;137925;-68
2023/06/05 04:05:21;;;;;;;3.80;2.00;;;;;;;14.24;41.90;100749.02;103029;1257;108192;-67
2023/06/05 04:07:49;;;;;;;6.90;2.40;;;;;;;14.28;41.93;100746.77;103031;1256;137831;-67
2023/06/05 04:10:17;;;;;;;4.20;2.10;;;;;;;14.32;42.04;100746.77;103277;1256;112175;-67
2023/06/05 04:12:44;;;;;;;4.80;2.30;;;;;;;14.37;41.94;100744.66;103123;1256;107744;-66
2023/06/05 04:15:13;;;;;;;3.90;1.60;;;;;;;14.42;41.88;100746.92;102959;1256;138535;-68
2023/06/05 04:17:41;;;;;;;4.10;1.80;;;;;;;14.47;41.80;100748.13;103098;1256;108844;-67
2023/06/05 04:20:14;;;;;;;6.00;2.00;;;;;;;14.52;41.82;100748.25;103665;1256;137830;-68
2023/06/05 04:22:42;;;;;;;7.10;2.20;;;;;;;14.58;41.81;100751.73;103337;1256;112311;-67
2023/06/05 04:25:12;;;;;;;7.70;2.10;;;;;;;14.62;41.81;100755.73;103678;1260;137998;-71
2023/06/05 04:27:41;;;;;;;9.20;2.80;;;;;;;14.68;41.86;100757.23;103063;1256;97816;-67
2023/06/05 04:30:11;;;;;;;8.20;2.40;;;;;;;14.76;41.79;100757.27;103003;1259;109059;-67
2023/06/05 04:32:39;;;;;;;7.20;2.30;;;;;;;14.83;41.66;100758.19;104192;1257;138657;-68
2023/06/05 04:35:09;;;;;;;9.70;2.10;;;;;;;14.91;41.52;100759.95;103343;1260;111760;-68
2023/06/05 04:37:38;;;;;;;11.40;3.60;;;;;;;15.00;41.59;100762.56;103747;1256;137821;-69
2023/06/05 04:40:09;;;;;;;7.40;2.10;;;;;;;15.09;41.48;100760.94;103106;1257;97819;-68
2023/06/05 04:42:38;;;;;;;7.10;1.80;;;;;;;15.20;41.54;100763.62;103477;1256;107021;-68
2023/06/05 04:45:08;;;;;;;10.70;2.50;;;;;;;15.31;41.30;100766.52;104181;1256;137921;-68
2023/06/05 04:47:40;;;;;;;8.40;2.20;;;;;;;15.39;41.09;100767.70;104109;1255;111064;-69
2023/06/05 04:50:09;;;;;;;5.10;2.40;;;;;;;15.47;40.96;100767.02;102802;1256;138091;-68
2023/06/05 04:52:39;;;;;;;6.10;2.20;;;;;;;15.56;41.19;100765.77;103061;1256;97790;-68
2023/06/05 04:55:10;;;;;;;7.50;2.40;;;;;;;15.68;41.04;100764.88;103000;1258;139395;-68
2023/06/05 04:57:40;;;;;;;9.40;2.30;;;;;;;15.79;40.87;100763.70;103081;1261;97860;-68
2023/06/05 05:00:11;;;;;;;5.70;2.20;;;;;;;15.88;40.61;100764.66;103958;1256;110520;-69
2023/06/05 05:02:39;;;;;;;7.00;1.80;;;;;;;16.01;41.06;100768.65;102984;1256;137827;-68
2023/06/05 05:05:08;;;;;;;6.40;2.60;;;;;;;16.14;41.05;100766.25;103123;1259;97798;-68
2023/06/05 05:07:36;;;;;;;4.70;1.80;;;;;;;16.27;40.55;100768.77;104202;1256;137576;-70
2023/06/05 05:10:05;;;;;;;5.00;1.80;;;;;;;16.40;40.36;100770.63;103171;1259;97804;-69
2023/06/05 05:12:32;;;;;;;6.30;2.60;;;;;;;16.54;40.32;100767.87;103267;1256;109137;-70
2023/06/05 05:15:01;;;;;;;9.90;1.70;;;;;;;16.70;40.39;100769.73;103297;1255;139018;-70
2023/06/05 05:17:28;;;;;;;4.60;1.80;;;;;;;16.90;40.16;100770.15;103114;1259;98251;-70
2023/06/05 05:19:56;;;;;;;8.50;1.90;;;;;;;17.11;39.75;100766.09;103134;1260;139137;-69
2023/06/05 05:22:24;;;;;;;7.20;1.90;;;;;;;17.26;39.01;100763.73;103093;1254;97773;-69
2023/06/05 05:24:52;;;;;;;4.70;1.70;;;;;;;17.41;38.83;100762.80;103032;1256;111786;-68
2023/06/05 05:27:19;;;;;;;9.20;2.00;;;;;;;17.59;38.54;100763.41;103753;1258;107819;-69
2023/06/05 05:29:48;;;;;;;9.10;2.00;;;;;;;17.77;38.19;100761.63;103140;1258;98669;-67
2023/06/05 05:32:17;;;;;;;11.60;2.00;;;;;;;17.91;37.65;100764.70;102986;1256;137686;-70
2023/06/05 05:35:07;;;;;;;7.70;1.60;;;;;;;18.11;37.62;100763.63;104106;1256;97788;-70
2023/06/05 05:37:34;;;;;;;4.40;1.80;;;;;;;18.33;37.27;100769.10;103333;1256;137842;-70
2023/06/05 05:40:03;;;;;;;13.30;2.40;;;;;;;18.54;36.92;100767.73;102980;1256;109646;-70
2023/06/05 05:42:31;;;;;;;10.10;2.20;;;;;;;18.77;36.80;100765.76;103142;1256;97726;-71
2023/06/05 05:44:59;;;;;;;11.40;1.80;;;;;;;19.13;36.88;100763.24;102975;1260;137802;-70
2023/06/05 05:47:26;;;;;;;9.90;2.00;;;;;;;19.43;36.32;100764.96;103099;1259;97785;-71
2023/06/05 05:49:54;;;;;;;5.00;1.50;;;;;;;19.95;35.97;100764.43;103056;1256;138032;-70
2023/06/05 05:52:22;;;;;;;4.30;1.70;;;;;;;21.15;35.29;100762.75;103000;1259;108827;-80
2023/06/05 05:54:50;;;;;;;7.70;1.60;;;;;;;23.00;33.67;100753.84;103094;1256;97698;-79
2023/06/05 05:57:18;;;;;;;9.40;1.60;;;;;;;24.92;31.44;100752.33;102983;1259;107471;-78
2023/06/05 05:59:45;;;;;;;8.60;1.60;;;;;;;26.66;29.53;100747.51;103012;1256;97678;-76
2023/06/05 06:02:12;;;;;;;8.30;1.60;;;;;;;28.33;27.81;100741.81;103635;1256;137641;-78
2023/06/05 06:04:43;;;;;;;6.70;1.40;;;;;;;29.73;26.16;100735.30;103299;1256;108462;-79
2023/06/05 06:07:11;;;;;;;6.70;1.60;;;;;;;31.08;24.83;100735.44;102858;1258;140735;-79
2023/06/05 06:09:39;;;;;;;5.50;1.50;;;;;;;32.32;23.47;100737.42;102997;1256;108133;-79
2023/06/05 06:12:08;;;;;;;5.70;1.80;;;;;;;33.24;22.73;100735.73;103010;1258;97804;-77
2023/06/05 06:14:36;;;;;;;5.20;1.50;;;;;;;34.36;21.64;100731.33;103414;1256;137983;-78
2023/06/05 06:17:05;;;;;;;6.40;1.60;;;;;;;35.45;20.34;100732.92;103502;1256;98740;-78
2023/06/05 06:19:34;;;;;;;11.80;1.60;;;;;;;36.38;19.74;100732.40;102888;1256;137774;-79
2023/06/05 06:22:01;;;;;;;8.60;1.80;;;;;;;37.36;18.94;100734.35;103025;1256;100419;-80
2023/06/05 06:24:29;;;;;;;3.40;1.30;;;;;;;38.25;18.03;100735.52;103059;1256;97715;-80
2023/06/05 06:26:56;;;;;;;8.30;1.50;;;;;;;38.84;17.23;100732.10;102933;1257;137656;-76
2023/06/05 06:29:27;;;;;;;11.70;1.70;;;;;;;39.38;16.56;100736.52;103031;1256;100861;-75
2023/06/05 06:31:54;;;;;;;13.40;1.60;;;;;;;39.87;15.69;100736.69;102987;1256;137927;-77
2023/06/05 06:34:21;;;;;;;8.40;1.50;;;;;;;40.25;15.35;100736.11;103042;1256;100311;-76
2023/06/05 06:36:49;;;;;;;6.60;1.40;;;;;;;40.72;14.74;100738.20;103001;1261;97792;-75
2023/06/05 06:39:16;;;;;;;6.30;1.70;;;;;;;41.15;14.56;100736.57;102946;1256;138608;-76
2023/06/05 06:41:44;;;;;;;6.70;1.70;;;;;;;41.54;13.79;100736.85;103078;1256;99827;-75
2023/06/05 06:44:11;;;;;;;4.80;1.50;;;;;;;41.65;13.41;100738.58;102979;1256;137706;-75
2023/06/05 06:46:38;;;;;;;6.30;1.40;;;;;;;41.51;13.10;100735.92;103132;1259;100459;-75
2023/06/05 06:49:07;;;;;;;5.50;1.20;;;;;;;41.51;12.98;100737.52;102852;1259;138357;-75
2023/06/05 06:51:35;;;;;;;6.00;1.10;;;;;;;41.47;12.67;100739.88;103095;1262;102622;-76
2023/06/05 06:54:02;;;;;;;6.30;1.20;;;;;;;41.43;12.50;100739.11;103014;1256;99066;-77
2023/06/05 06:56:29;;;;;;;5.50;1.00;;;;;;;41.38;12.52;100733.65;102950;1258;137604;-77
2023/06/05 06:58:57;;;;;;;10.90;1.30;;;;;;;41.32;12.58;100731.07;102998;1256;100061;-78
2023/06/05 07:01:25;;;;;;;8.80;1.50;;;;;;;41.26;12.43;100729.23;102851;1256;138200;-76
2023/06/05 07:03:54;;;;;;;6.80;1.20;;;;;;;41.26;12.19;100731.75;103035;1254;102250;-78
2023/06/05 07:06:22;;;;;;;5.70;0.80;;;;;;;41.33;12.13;100731.72;103046;1259;99001;-79
2023/06/05 07:08:50;;;;;;;5.20;1.00;;;;;;;41.50;11.82;100734.17;102901;1256;137862;-77
2023/06/05 07:11:17;;;;;;;4.00;0.90;;;;;;;41.51;11.91;100736.39;102989;1256;99083;-77
2023/06/05 07:13:45;;;;;;;4.20;1.10;;;;;;;41.59;11.67;100737.73;103048;1256;137717;-77
2023/06/05 07:16:12;;;;;;;13.30;1.30;;;;;;;41.70;11.80;100740.39;103119;1256;110818;-75
2023/06/05 07:18:40;;;;;;;6.00;1.10;;;;;;;41.83;11.88;100737.14;103057;1256;99387;-71
2023/06/05 07:21:07;;;;;;;2.40;0.70;;;;;;;42.10;11.67;100737.70;104004;1258;137458;-73
2023/06/05 07:23:36;;;;;;;6.10;1.30;;;;;;;42.22;10.82;100740.74;103006;1256;100142;-74
2023/06/05 07:26:04;;;;;;;4.80;1.10;;;;;;;41.97;10.65;100740.77;103223;1256;137822;-76
2023/06/05 07:28:31;;;;;;;5.60;1.10;;;;;;;41.64;11.17;100745.02;103057;1256;103475;-75
2023/06/05 07:31:03;;;;;;;4.00;1.00;;;;;;;41.79;11.16;100744.34;102877;1260;137997;-74
2023/06/05 07:33:30;;;;;;;6.50;1.20;;;;;;;41.92;11.42;100734.96;103023;1259;97766;-74
2023/06/05 07:35:59;;;;;;;5.60;1.30;;;;;;;42.07;11.18;100741.59;103047;1256;98781;-75
2023/06/05 07:38:27;;;;;;;5.00;1.10;;;;;;;41.87;10.56;100740.36;102987;1256;137696;-75
2023/06/05 07:40:56;;;;;;;1.20;0.80;;;;;;;41.16;10.36;100740.30;103027;1259;103365;-73
2023/06/05 07:43:24;;;;;;;5.50;1.00;;;;;;;40.87;10.79;100738.14;103275;1258;138415;-72
2023/06/05 07:45:51;;;;;;;5.30;0.80;;;;;;;40.86;10.98;100738.06;103063;1256;98165;-72
2023/06/05 07:48:18;;;;;;;2.50;1.20;;;;;;;40.93;11.15;100740.05;103047;1256;99239;-72
2023/06/05 07:50:45;;;;;;;2.00;1.20;;;;;;;41.13;10.67;100735.48;102920;1260;137647;-72
2023/06/05 07:53:12;;;;;;;3.20;1.20;;;;;;;41.15;10.67;100735.41;102987;1255;103712;-72
2023/06/05 07:55:40;;;;;;;3.60;0.90;;;;;;;41.23;10.79;100736.16;102972;1256;137596;-74
2023/06/05 07:58:07;;;;;;;3.90;1.00;;;;;;;41.31;10.87;100735.92;103101;1259;97796;-72
2023/06/05 08:00:34;;;;;;;4.80;0.90;;;;;;;41.45;11.21;100736.60;103040;1256;100310;-71
2023/06/05 08:03:03;;;;;;;3.30;1.10;;;;;;;41.54;11.21;100733.46;103000;1255;137745;-71
2023/06/05 08:05:35;;;;;;;5.60;1.30;;;;;;;41.80;11.03;100730.02;103315;1258;102628;-71
2023/06/05 08:08:03;;;;;;;6.10;1.00;;;;;;;42.02;10.85;100728.72;102939;1259;137831;-72
2023/06/05 08:10:30;;;;;;;2.60;1.20;;;;;;;42.16;11.03;100734.23;103060;1260;97778;-73
2023/06/05 08:12:57;;;;;;;9.10;0.80;;;;;;;42.23;10.93;100732.91;102944;1258;137809;-71
2023/06/05 08:15:25;;;;;;;5.80;1.30;;;;;;;42.21;10.47;100730.69;103082;1257;97809;-73
2023/06/05 08:17:52;;;;;;;2.60;1.00;;;;;;;42.00;10.04;100735.42;103095;1260;102252;-73
2023/06/05 08:20:20;;;;;;;3.80;1.00;;;;;;;41.68;10.34;100734.20;102905;1259;137822;-73
2023/06/05 08:22:49;;;;;;;5.90;1.10;;;;;;;41.56;10.17;100738.64;103084;1256;97797;-73
2023/06/05 08:25:16;;;;;;;5.90;1.00;;;;;;;41.16;10.17;100740.96;103151;1256;137597;-73
2023/06/05 08:27:44;;;;;;;2.50;1.10;;;;;;;40.61;10.19;100730.59;103017;1258;97904;-73
2023/06/05 08:30:12;;;;;;;2.40;1.00;;;;;;;40.46;10.88;100727.85;103057;1258;103753;-72
2023/06/05 08:32:39;;;;;;;3.80;0.90;;;;;;;40.33;10.91;100727.51;103762;1256;137859;-75
2023/06/05 08:35:09;;;;;;;1.70;0.90;;;;;;;39.85;10.64;100733.19;103049;1260;97839;-74
2023/06/05 08:37:36;;;;;;;8.60;1.40;;;;;;;39.40;10.69;100729.11;104298;1256;137852;-74
2023/06/05 08:40:10;;;;;;;2.40;1.00;;;;;;;39.22;11.09;100729.27;103246;1260;97796;-75
2023/06/05 08:42:39;;;;;;;2.20;1.00;;;;;;;38.98;11.25;100728.38;103159;1256;103642;-76
2023/06/05 08:45:08;;;;;;;5.40;1.10;;;;;;;38.68;11.22;100730.60;102875;1256;137906;-75
2023/06/05 08:47:40;;;;;;;4.00;1.20;;;;;;;38.35;11.55;100729.69;103165;1256;97810;-75
2023/06/05 08:50:10;;;;;;;1.90;1.10;;;;;;;38.13;11.45;100733.45;103540;1256;137683;-74
2023/06/05 08:52:42;;;;;;;8.10;1.10;;;;;;;37.83;11.34;100731.60;103183;1261;97692;-74
2023/06/05 08:55:12;;;;;;;5.00;1.20;;;;;;;37.57;11.47;100734.82;102977;1256;137986;-74
2023/06/05 08:57:41;;;;;;;5.50;1.00;;;;;;;37.46;11.45;100734.69;103295;1256;98928;-75
2023/06/05 09:00:11;;;;;;;6.90;1.10;;;;;;;37.18;11.53;100738.50;103320;1259;97879;-74
2023/06/05 09:02:43;;;;;;;4.60;1.10;;;;;;;36.66;12.05;100732.23;102988;1256;137768;-75
2023/06/05 09:05:13;;;;;;;7.50;1.10;;;;;;;36.53;12.34;100729.67;103253;1256;97785;-74
2023/06/05 09:07:41;;;;;;;4.80;1.10;;;;;;;36.61;12.23;100724.59;102989;1256;138160;-74
2023/06/05 09:10:24;;;;;;;3.50;1.20;;;;;;;36.61;12.12;100723.79;103066;1261;100145;-75
2023/06/05 09:12:59;;;;;;;2.40;1.10;;;;;;;36.45;11.88;100724.02;103241;1256;97752;-76
2023/06/05 09:15:27;;;;;;;2.60;1.00;;;;;;;36.06;12.19;100720.89;103126;1256;100314;-74
2023/06/05 09:18:10;;;;;;;6.90;1.40;;;;;;;35.94;12.56;100717.98;103051;1260;98323;-74
2023/06/05 09:20:40;;;;;;;7.70;1.30;;;;;;;35.99;12.64;100720.34;103030;1256;137797;-74
2023/06/05 09:23:24;;;;;;;4.10;1.10;;;;;;;35.82;12.32;100720.88;103069;1259;100356;-71
2023/06/05 09:25:54;;;;;;;2.30;1.50;;;;;;;35.45;12.42;100711.25;102978;1259;137787;-73
2023/06/05 09:28:22;;;;;;;2.60;1.20;;;;;;;35.35;12.63;100715.60;103474;1256;100243;-72
2023/06/05 09:31:00;;;;;;;8.40;1.30;;;;;;;35.36;12.83;100713.73;103086;1256;97805;-72
2023/06/05 09:33:30;;;;;;;4.80;1.40;;;;;;;35.30;13.20;100718.73;103260;1254;103942;-74
2023/06/05 09:36:12;;;;;;;4.60;1.20;;;;;;;35.29;13.20;100716.63;103052;1256;100320;-75
2023/06/05 09:38:42;;;;;;;5.20;1.40;;;;;;;35.30;13.42;100718.19;103055;1259;137930;-78
2023/06/05 09:41:10;;;;;;;3.90;1.20;;;;;;;35.33;13.64;100708.86;103122;1256;99789;-78
2023/06/05 09:43:38;;;;;;;7.50;1.40;;;;;;;35.50;13.55;100702.81;102980;1256;139756;-74
2023/06/05 09:46:10;;;;;;;4.10;1.40;;;;;;;35.59;13.71;100705.50;103102;1256;103886;-73
2023/06/05 09:48:39;;;;;;;3.20;1.30;;;;;;;35.63;13.80;100702.79;102868;1256;100053;-72
2023/06/05 09:51:14;;;;;;;8.10;1.80;;;;;;;35.89;13.69;100702.29;103019;1259;137828;-72
2023/06/05 09:53:45;;;;;;;5.80;1.70;;;;;;;36.10;13.17;100703.46;103042;1259;99775;-73
2023/06/05 09:56:15;;;;;;;3.80;1.40;;;;;;;35.99;12.60;100701.37;103028;1261;137854;-74
2023/06/05 09:58:46;;;;;;;7.20;1.70;;;;;;;35.43;12.65;100696.13;103663;1256;102176;-73
2023/06/05 10:01:17;;;;;;;3.00;1.20;;;;;;;34.92;12.57;100699.86;102905;1259;138166;-74
2023/06/05 10:03:48;;;;;;;7.70;1.50;;;;;;;34.35;12.99;100695.61;103050;1256;97676;-75
2023/06/05 10:06:23;;;;;;;5.40;1.50;;;;;;;33.92;13.69;100690.39;103031;1256;98381;-73
2023/06/05 10:08:52;;;;;;;4.90;1.30;;;;;;;33.65;13.58;100694.35;102984;1256;138289;-74
2023/06/05 10:11:22;;;;;;;3.10;1.30;;;;;;;33.40;13.97;100693.03;103044;1256;102276;-73
2023/06/05 10:13:50;;;;;;;3.00;1.20;;;;;;;33.33;13.89;100690.64;102917;1256;137808;-73
2023/06/05 10:16:19;;;;;;;4.40;1.10;;;;;;;33.19;13.81;100688.73;103022;1258;97882;-73
2023/06/05 10:18:53;;;;;;;5.40;1.40;;;;;;;33.02;13.99;100691.81;103097;1256;107695;-73
2023/06/05 10:21:21;;;;;;;3.40;1.30;;;;;;;32.94;14.06;100690.15;103003;1256;137757;-72
2023/06/05 10:23:52;;;;;;;1.80;1.10;;;;;;;32.82;14.09;100688.95;103028;1259;103908;-72
2023/06/05 10:26:32;;;;;;;3.60;1.20;;;;;;;32.63;14.35;100685.98;102923;1259;138112;-72
2023/06/05 10:29:18;;;;;;;3.60;1.30;;;;;;;32.46;14.42;100689.78;103045;1256;97756;-72
2023/06/05 10:31:49;;;;;;;5.60;1.40;;;;;;;32.09;14.69;100690.70;102820;1256;137692;-72
2023/06/05 10:34:40;;;;;;;1.80;1.20;;;;;;;31.89;15.23;100685.13;103023;1260;97839;-72
2023/06/05 10:37:38;;;;;;;2.50;1.50;;;;;;;31.81;15.83;100683.29;102897;1256;138301;-72
2023/06/05 10:40:09;;;;;;;3.90;1.30;;;;;;;31.84;16.06;100679.28;102524;1267;107775;-72
2023/06/05 10:42:36;;;;;;;3.20;1.40;;;;;;;31.96;15.90;100679.46;102609;1266;97837;-72
2023/06/05 10:45:05;;;;;;;2.30;1.20;;;;;;;32.07;16.12;100677.42;102536;1266;137680;-72
2023/06/05 10:47:53;;;;;;;7.90;1.70;;;;;;;32.17;16.04;100673.52;102579;1267;97849;-73
2023/06/05 10:50:26;;;;;;;3.70;1.20;;;;;;;32.29;16.10;100669.98;102682;1267;138117;-72
2023/06/05 10:52:56;;;;;;;3.90;1.40;;;;;;;32.34;15.64;100666.22;102563;1261;107554;-72
2023/06/05 10:55:24;;;;;;;2.80;1.20;;;;;;;32.21;15.52;100663.58;102554;1262;142099;-71
2023/06/05 10:58:15;;;;;;;2.70;1.40;;;;;;;32.09;15.78;100669.38;102620;1261;108376;-72
2023/06/05 11:01:04;;;;;;;3.30;1.60;;;;;;;31.99;15.83;100665.03;102717;1267;97723;-73
2023/06/05 11:03:57;;;;;;;5.50;1.60;;;;;;;31.83;15.97;100658.66;103054;1257;112194;-73
2023/06/05 11:06:25;;;;;;;6.10;1.50;;;;;;;31.75;16.34;100657.91;102966;1259;106883;-73
2023/06/05 11:09:11;;;;;;;7.80;1.50;;;;;;;31.62;16.56;100657.55;102963;1256;137853;-75
2023/06/05 11:12:00;;;;;;;8.00;1.40;;;;;;;31.53;16.65;100652.70;102970;1261;107338;-75
2023/06/05 11:14:43;;;;;;;3.60;1.40;;;;;;;31.47;16.65;100651.25;102989;1257;137945;-74
2023/06/05 11:17:28;;;;;;;9.90;1.70;;;;;;;31.31;16.64;100647.52;103100;1259;111869;-74
2023/06/05 11:19:55;;;;;;;5.90;1.50;;;;;;;31.19;16.72;100648.95;102980;1257;137950;-76
2023/06/05 11:22:23;;;;;;;3.80;1.50;;;;;;;31.08;16.92;100644.99;103095;1258;97855;-74
2023/06/05 11:25:32;;;;;;;7.60;1.80;;;;;;;30.98;16.98;100641.00;103018;1259;107289;-76